12.283 Lista de Empresas Abertas em 17/09/2021

Lista de Empresas Aberta em 17/09/2021

Encontramos 12.283 Empresas que Foram Abertas em 17/09/2021

Se você está em busca de lista de empresas abertas em 17/09/2021 estão você está no lugar certo! Aqui você encontra a mais completa, atualizada e mais recente base de dados das empresas brasileiras. Use nossas listas e aumente suas Vendas!

Lista de Empresas Abertas em 17/09/2021

Número do CNPJ Data de Abertura Nome Fantasia Razão Social Telefone UF Município Endereço CEP Porte da Empresa Capital Social Atividades / Segmentação
43657211000104 17/09/2021 RODRIGO BALESTERO E OUTRO (11) 4021-1171 SP Bariri Fazenda Nossa Senhora Aparecida, Paina Casa Zona Rural,... 17259899 DEMAIS R$ 0,00 0111-3/02 :: Cultivo de milho
43566094000173 17/09/2021 ANA LAURA TARIFA DE LIMA (19) 9131-4196 SP Sao Joao Da Boa Vista Sitio Ribeirao Dos Porcos, Zona Rural , Nº Sn 13870970 DEMAIS R$ 0,00 0111-3/02 :: Cultivo de milho
43567231000194 17/09/2021 ANDREIA SILENI BRUNOZI (17) 9114-1495 SP Jaborandi Sitio Vovo Joao, Rural , Nº S/n 14775000 DEMAIS R$ 0,00 0113-0/00 :: Cultivo de cana-de-açúcar
43657167000132 17/09/2021 JOSEFA GOMES PEREZ E OUTROS (17) 3262-3280 SP Nova Granada Sitio Sao Carlos, Zona Rural , Nº S/n 15440000 DEMAIS R$ 0,00 0113-0/00 :: Cultivo de cana-de-açúcar
43657213000101 17/09/2021 RUBENS PEREIRA NETO (17) 9705-3500 SP Olimpia Area Rodovia Olimpia A Sao Jose Do Rio Preto, Km 27, Ba... 15409899 DEMAIS R$ 0,00 0113-0/00 :: Cultivo de cana-de-açúcar
43567427000189 17/09/2021 GLEISON FELIPE ALVES SILVA E OUTROS (16) 9706-2992 SP Pontal Sitio Santa Antonia, Zona Rural , Nº S/n 14180000 DEMAIS R$ 0,00 0113-0/00 :: Cultivo de cana-de-açúcar
43657168000187 17/09/2021 BRUNO BADDO E OUTROS (15) 3283-4488 SP Laranjal Paulista Estrada Municipal Entre Rios Gloria, Entre Rios Km Km 8... 18500000 DEMAIS R$ 0,00 0113-0/00 :: Cultivo de cana-de-açúcar
43784853000174 17/09/2021 DUJANJAS RODRIGUES DE FARIA E OUTRO (18) 3324-7105 SP Paraguacu Paulista Fazenda Olho D Agua, Zona Rural Zona Rural, Nº S/n 19720971 DEMAIS R$ 0,00 0113-0/00 :: Cultivo de cana-de-açúcar
43657165000143 17/09/2021 JESSYCA CHRISTINNE GAROFO MOISES UEHARA E OUTRO (16) 8179-1258 SP Miguelopolis Estrada Vicinal Miguelopolis Guaira Km 14 - A Esquerda,... 14530000 DEMAIS R$ 0,00 0113-0/00 :: Cultivo de cana-de-açúcar
43572946000135 17/09/2021 GUILHERME RIBEIRO ROCHA CHAVAGLIA (16) 3839-8610 SP Ituverava Estrada Ituverava A Jeriquara Km 8, Rural Fazenda Mata... 14500000 DEMAIS R$ 0,00 0113-0/00 :: Cultivo de cana-de-açúcar
44602497000193 17/09/2021 JOAO MICHEL GEORGES E OUTROS (17) 3542-3174 SP Novo Horizonte Sitio Santa Maria, Ponte Alta Zona Rural, Nº S/n 14968899 DEMAIS R$ 0,00 0113-0/00 :: Cultivo de cana-de-açúcar
43567268000112 17/09/2021 JANETE LUZIA ALVES DE PAULA (17) 9174-5673 SP Balsamo Sitio Sao Joao, Fazenda Balsamo , Nº S/n 15140000 DEMAIS R$ 0,00 0113-0/00 :: Cultivo de cana-de-açúcar
43657164000107 17/09/2021 MARIA AUGUSTA CIRELLI CASTIGLIONI (19) 3583-3482 SP Descalvado Sitio Santa Luzia, Zona Rural , Nº S/n 13690000 DEMAIS R$ 0,00 0113-0/00 :: Cultivo de cana-de-açúcar
43567269000167 17/09/2021 JETER BIAGI (17) 3587-1138 SP Paraiso Sitio Betania, Rural , Nº Sn 15825000 DEMAIS R$ 0,00 0113-0/00 :: Cultivo de cana-de-açúcar
43565341000117 17/09/2021 Agropecuaria Lb AGROPECUARIA LB LTDA (55) 3282-1238 RS Dom Pedrito Distrito Torquato Severo, Segundo Distrito Area Rural,... 96455000 ME R$ 80.000,00 0115-6/00 :: Cultivo de soja
43573241000132 17/09/2021 MARIA CLARA DO NASCIMENTO DA SILVA E OUTROS (18) 3341-7151 SP Candido Mota Sitio Nossa Senhora Aparecida, Agua Do Baciao Zona Rur... 19886899 DEMAIS R$ 0,00 0115-6/00 :: Cultivo de soja
43555090000190 17/09/2021 Agropecuaria Tanque AGROPECUARIA TANQUE LTDA (64) 3431-0510 GO Mineiros Avenida Sete, Setor Martins Quadra14 Lote 8-b Sala 02, ... 75832042 ME R$ 100.000,00 0115-6/00 :: Cultivo de soja
43561403000112 17/09/2021 FAZENDA DALL ASTA AGRONEGOCIOS LTDA (53) 3227-1010 MT Canarana Fazenda Dall Asta, Margem Direita Do Rio Tanguro, Zona ... 78640000 DEMAIS R$ 97.000,00 0115-6/00 :: Cultivo de soja
43564859000136 17/09/2021 AGROPECUARIA ESCOBAR LTDA (67) 3416-7200 MS Paranhos Estrada Municipal Paranhos A Amambai, Zona Rural , Nº S... 79925000 ME R$ 780.000,00 0115-6/00 :: Cultivo de soja
43553656000144 17/09/2021 LAKSHMI ADM E SERVICOS LTDA (46) 3262-1940 PR Palmas Rodovia Prt 280, Trevo Dos Kaygangues , Nº Km 63 85555000 ME R$ 681.818,00 0115-6/00 :: Cultivo de soja
43567694000156 17/09/2021 DAVID FRANCISCO CESPEDES E OUTROS (16) 9766-9638 SP Promissao Fazenda Jurua, Barreirinho , Nº 0000 16370000 DEMAIS R$ 0,00 0116-4/01 :: Cultivo de amendoim
43661454000116 17/09/2021 GERSON KOJI MITSUNAGA (14) 3496-1887 SP Quintana Sitio Sitio Santa Alda - Estr Vicinal Sentido Bairr Cor... 17670000 DEMAIS R$ 0,00 0116-4/01 :: Cultivo de amendoim
43640873000171 17/09/2021 RICHARD FERNANDO DE ANDRADE ALVARES (19) 3663-1157 SP Divinolandia Sitio Sao Francisco, Tres Barras , Nº S/n 13780000 DEMAIS R$ 0,00 0119-9/03 :: Cultivo de batata-inglesa
43567322000120 17/09/2021 JOSE CARLOS DE SOUZA JUNIOR (19) 3662-1708 SP Caconde Sitio Serrinha, Serrinha , Nº Sn 13770000 DEMAIS R$ 0,00 0119-9/04 :: Cultivo de cebola
43657254000190 17/09/2021 NIVALDO CAVALCANTE DA SILVA (18) 9752-4501 SP Narandiba Sitio Boa Esperanca, Figueirao , Nº 0002 19220000 DEMAIS R$ 0,00 0119-9/06 :: Cultivo de mandioca
43752480000150 17/09/2021 ROBSON CAMARGO CARVALHO (15) 3279-1285 SP Sao Miguel Arcanjo Sitio Nova Esperanca, Retiro , Nº S/n 18230000 DEMAIS R$ 0,00 0119-9/99 :: Cultivo de outras plantas de lavoura temporária não especificadas anteriormente
43567273000125 17/09/2021 VALDIR LEANDRO NUNES DE OLIVEIRA (15) 3547-1292 SP Guapiara Sitio Oliveira, Aracaeiro , Nº 00 18310000 DEMAIS R$ 0,00 0121-1/01 :: Horticultura, exceto morango
43586284000152 17/09/2021 VANDERSON BAROCA DA SILVA (15) 9749-6356 SP Ibiuna Rodovia Bunjiro Nakao, Curral , Nº Km 63 18150000 DEMAIS R$ 0,00 0121-1/01 :: Horticultura, exceto morango
43657169000121 17/09/2021 ARNALDO DOMINGUES DA CRUZ (15) 3547-1292 SP Guapiara Sitio Santa Cruz, Macedo De Baixo , Nº 00 18310000 DEMAIS R$ 0,00 0121-1/01 :: Horticultura, exceto morango
43657257000123 17/09/2021 KENDI SASAKI E OUTRA (14) 9758-6702 SP Santa Cruz Do Rio Pardo Fazenda Rangel, Agua Do Rangel , Nº S/n 18919899 DEMAIS R$ 0,00 0121-1/01 :: Horticultura, exceto morango
43567135000146 17/09/2021 AMANDA FERNANDES DA SILVA (15) 9643-3874 SP Itarare Sitio Barreirinho, Passo Fino , Nº S/n 18467899 DEMAIS R$ 0,00 0121-1/01 :: Horticultura, exceto morango
43657166000198 17/09/2021 RODRIGO ADRIANO NOVAIS (13) 9646-5685 SP Pariquera-acu Estrada De Cananeia, Braco Magro Km 14, Nº S/n 11930000 DEMAIS R$ 0,00 0121-1/01 :: Horticultura, exceto morango
43567321000185 17/09/2021 ANA CAROLINE ABREU DAS NEVES (15) 9848-3563 SP Sao Miguel Arcanjo Sitio Quirino, Turvinho , Nº Sn 18230000 DEMAIS R$ 0,00 0121-1/01 :: Horticultura, exceto morango
43657216000137 17/09/2021 GIOVANI DONIZETI DE CARVALHO (12) 3622-4595 SP Taubate Rua Cinco De Dezembro, Jardim Bela Vista , Nº 135 12091380 DEMAIS R$ 0,00 0121-1/01 :: Horticultura, exceto morango
43567400000196 17/09/2021 DEIVID VINICIUS FERNANDES (14) 8116-1624 SP Arealva Chacara Chacara 2d, Santa Izabel , Nº S/n 17167899 DEMAIS R$ 0,00 0121-1/01 :: Horticultura, exceto morango
43631758000130 17/09/2021 VALDINEIA SARTORI DE OLIVEIRA E OUTRO (14) 8146-2099 SP Bofete Sitio Crt 297c, Morro Redondo , Nº Sn 18590000 DEMAIS R$ 0,00 0121-1/01 :: Horticultura, exceto morango
43755584000118 17/09/2021 BRUNA ISIS DA SILVA MARCELINO E OUTRO (14) 8160-1621 SP Bofete Sitio Crt 297c, Morro Redondo Nsra Conceicao, Nº Sn 18590000 DEMAIS R$ 0,00 0121-1/01 :: Horticultura, exceto morango
43554056000109 17/09/2021 Hortalicas Sao Jose JOSE LUIZ DA COSTA BISNETO 08649021409 (83) 8615-8820 PB Itapororoca Sitio Ipioca De Cima, Area Rural , Nº S/n 58275000 MEI R$ 5.000,00 0121-1/01 :: Horticultura, exceto morango
43564505000191 17/09/2021 Walkeriana Donato ELIAS DONATO ORCHIDS LTDA (35) 3721-6207 MG Pocos De Caldas Avenida Gentil Messias - Kitate, Vila Cruz , Nº 270 37701528 ME R$ 30.000,00 0122-9/00 :: Cultivo de flores e plantas ornamentais
43559540000112 17/09/2021 Adenium Do Vale FRANCA E SOUZA VSF LTDA (74) 9157-2690 PE Petrolina Sitio Sitio Porteira, Zona Rural Quadraa, Nº 296 56334899 ME R$ 90.000,00 0122-9/00 :: Cultivo de flores e plantas ornamentais
43567326000108 17/09/2021 VALDECIR SANTOS PORTO (17) 9715-7428 SP Jales Sitio Sao Jose Ii, Corrego Do Mataozinho Km, Nº Sn 15700970 DEMAIS R$ 0,00 0132-6/00 :: Cultivo de uva
43572947000180 17/09/2021 JOSE MARIA FERREIRA E OUTRA (13) 3871-1250 SP Eldorado Comunidade Remanescentes De Quilombo Do Bairro Pedro Cu... 11960000 DEMAIS R$ 0,00 0133-4/02 :: Cultivo de banana
43565155000188 17/09/2021 Fazenda Kioto Mayeda KIOTO MAYEDA AGROPECUARIA LTDA (73) 8177-2587 BA Eunapolis Area Rural, Area Rural De Eunapolis Fazenda Kioto Maye... 45831899 ME R$ 110.000,00 0134-2/00 :: Cultivo de café
43567366000150 17/09/2021 ODAIR GARCIA MALAGUTTI (16) 3665-2075 SP Altinopolis Fazenda Nossa Senhora De Fatima, Rural , Nº Sn 14350000 DEMAIS R$ 0,00 0134-2/00 :: Cultivo de café
43574504000128 17/09/2021 MAURO CALLEJAS DA COSTA E OUTROS (19) 3663-1157 SP Caconde Sitio Do Alto, Fumaca , Nº S/n 13770000 DEMAIS R$ 0,00 0134-2/00 :: Cultivo de café
43557274000199 17/09/2021 Coopercafe COOPERATIVA DOS CAFEICULTORES DO VALE DO JURUA - COOPERCAFE (68) 9606-3092 AC Mancio Lima Avenida Japim, Cobal , Nº S/n 69990000 DEMAIS R$ 250.000,00 0134-2/00 :: Cultivo de café
43562226000199 17/09/2021 MARIA DE LOURDES MARQUES DAS NEVES SILVA (17) 9677-2090 SP Sales Sitio Claudina, Barra Mansa , Nº S/n 14980000 DEMAIS R$ 0,00 0139-3/06 :: Cultivo de seringueira
43562662000168 17/09/2021 VANGIVAL DA CONCEICAO (17) 9219-3565 SP Neves Paulista Fazenda Santa Fe I, Zona Rural , Nº Sn 15120000 DEMAIS R$ 0,00 0139-3/06 :: Cultivo de seringueira
43567327000152 17/09/2021 BENEDITA JOSE OLIVEIRA BOSSOLANI (17) 3562-1790 SP Tabapua Sitio Estrela Iza, Rural , Nº S/n 15880000 DEMAIS R$ 0,00 0139-3/06 :: Cultivo de seringueira
43657173000190 17/09/2021 LEANDRO CASTRO DE JESUS E OUTRA (17) 3281-1724 SP Olimpia Fazenda Monte Alegre, Santa Cruz , Nº Sn 15409899 DEMAIS R$ 0,00 0139-3/06 :: Cultivo de seringueira
43657175000189 17/09/2021 ROGERIO DAS NEVES PESSOA E OUTRA (17) 3281-1724 SP Olimpia Fazenda Monte Alegre, Santa Cruz , Nº Sn 15409899 DEMAIS R$ 0,00 0139-3/06 :: Cultivo de seringueira
43657214000148 17/09/2021 LUCIVALDO CAIRES SIZILIO (17) 3281-1724 SP Olimpia Fazenda Monte Alegre, Santa Cruz , Nº Sn 15409899 DEMAIS R$ 0,00 0139-3/06 :: Cultivo de seringueira
43657215000192 17/09/2021 EDSON JOSE DE OLIVEIRA (17) 3281-1724 SP Olimpia Fazenda Monte Alegre, Santa Cruz , Nº Sn 15409899 DEMAIS R$ 0,00 0139-3/06 :: Cultivo de seringueira
43657255000134 17/09/2021 DANILO APOLINARIO PARDO E OUTRA (17) 9702-2784 SP Tanabi Sitio Nossa Senhora Das Gracas, Fazenda Jatai De Cima ,... 15170000 DEMAIS R$ 0,00 0139-3/06 :: Cultivo de seringueira
43657256000189 17/09/2021 LUIZ FERNANDO DE SOUZA (17) 9127-3359 SP Tanabi Sitio Nossa Senhora Das Gracas, Fazenda Jatai De Cima ,... 15170000 DEMAIS R$ 0,00 0139-3/06 :: Cultivo de seringueira
43657258000178 17/09/2021 SAMUEL DE JESUS SANTOS (17) 9743-7352 SP Tanabi Sitio Nossa Senhora Das Gracas, Fazenda Jatai De Cima ,... 15170000 DEMAIS R$ 0,00 0139-3/06 :: Cultivo de seringueira
43657259000112 17/09/2021 ALEF SILVA DOS REIS E OUTRA (17) 9644-0018 SP Tanabi Sitio Nossa Senhora Das Gracas, Fazenda Jatai De Cima ,... 15170000 DEMAIS R$ 0,00 0139-3/06 :: Cultivo de seringueira
43658302000164 17/09/2021 EDIMAR GUARIGLIA (16) 3703-7670 SP Pedregulho Rodovia Antonia Rios Quercia, Km 04, Zona Rural Km Siti... 14470000 DEMAIS R$ 0,00 0139-3/06 :: Cultivo de seringueira
43657171000109 17/09/2021 PAULO TONDATO E OUTRA (17) 3819-1261 SP Nipoa Sitio Santo Antonio, Zona Rural Zona Rural, Nº S/n 15240000 DEMAIS R$ 0,00 0139-3/06 :: Cultivo de seringueira
43567137000135 17/09/2021 ALAN DIEGO AGUIAR SOUZA (18) 9644-7496 SP Mirante Do Paranapanema Chacara Bambuzinho, Canavial Zona Rural, Nº Sn 19260000 DEMAIS R$ 0,00 0141-5/02 :: Produção de sementes certificadas de forrageiras para formação de pasto
43557406000182 17/09/2021 Catasetum Brasil Orchids CATASETUM BRASIL ORCHIDS LTDA (69) 3441-1050 RO Cacoal Rua Rua Antonio De Paula Nunes, Jardim Eldorado , Nº 42... 76960970 ME R$ 80.000,00 0142-3/00 :: Produção de mudas e outras formas de propagação vegetal, certificadas
43566664000125 17/09/2021 DARLETE APARECIDA MILITAO DE CARVALHO (17) 9735-4132 SP Nova Luzitania Estrada Mun Nova Luzitania A Lourdes, Canjarana Faz N ... 15340000 DEMAIS R$ 0,00 0151-2/01 :: Criação de bovinos para corte
43566737000189 17/09/2021 GABRIEL JODAS TOLARDO (18) 3821-3304 SP Dracena Estrada Municipal Dracena A Junqueiropolis, Palmeirinha... 17900000 DEMAIS R$ 0,00 0151-2/01 :: Criação de bovinos para corte
43567228000170 17/09/2021 PEDRO PAULO CURY VIEIRA SCATIMBURGO (14) 8153-1505 SP Dois Corregos Sitio Cachoeirinha, Recreio Zona Rural, Nº S/n 17300000 DEMAIS R$ 0,00 0151-2/01 :: Criação de bovinos para corte
43567364000160 17/09/2021 LUIS CARLOS SIVIERO E OUTRA (14) 9646-9577 SP Arealva Chacara Santissima Trindade, Santa Izabel , Nº S/n 17167899 DEMAIS R$ 0,00 0151-2/01 :: Criação de bovinos para corte
43574502000139 17/09/2021 JOSE IDEMILSO GOTARDI SCARPIONI (19) 3863-3736 SP Itapira Nucleo Rural Bairro Ponte Nova, Ponte Nova Zona Rural,... 13970970 DEMAIS R$ 0,00 0151-2/01 :: Criação de bovinos para corte
43650994000102 17/09/2021 ANTONIO MARCOLINO DE CAMPOS (14) 9761-0456 SP Cerqueira Cesar Area Rancho Sao Benedito, Rural , Nº Sn 18769899 DEMAIS R$ 0,00 0151-2/01 :: Criação de bovinos para corte
43554843000142 17/09/2021 AGROPECUARIA AGUAS CLARAS II LTDA (53) 3227-1010 MT Juara Estrada Juara A Aguas Claras, Km 25, Sala B, Zona Rural... 78575000 DEMAIS R$ 116.074,00 0151-2/01 :: Criação de bovinos para corte
43555020000131 17/09/2021 AGROPECUARIA XC LTDA (53) 3227-1010 MT Juara Estrada Juara A Aguas Claras, Km 25, Zona Rural , Nº S/... 78575000 DEMAIS R$ 146.367,00 0151-2/01 :: Criação de bovinos para corte
43556665000199 17/09/2021 Haras Ff HARAS E AGROPECUARIA FF LTDA (21) 6407-0429 RJ Cabo Frio Estrada Da Agrisa, Angelim Lote 32 Gleba B Km 7, Nº 0 28927991 ME R$ 50.000,00 0151-2/01 :: Criação de bovinos para corte
43640095000110 17/09/2021 JOSE ROBERTO BATISTA ROWE (14) 9806-1194 SP Avare Sitio Violeta, Rural , Nº Sn 18701971 DEMAIS R$ 0,00 0151-2/01 :: Criação de bovinos para corte
43566093000129 17/09/2021 RAMON GIMENEZ (18) 3659-1706 SP Bilac Rodovia Gabriel Melhado Sp-461 Bilac A Birigui Ao Lado ... 16210000 DEMAIS R$ 0,00 0151-2/01 :: Criação de bovinos para corte
43657174000134 17/09/2021 ROZEMAR AUGUSTO DOS SANTOS E OUTRA (12) 3647-1209 SP Lagoinha Sitio Tres Coracoes, Campinas Zona Rural, Nº Sn 12130000 DEMAIS R$ 0,00 0151-2/01 :: Criação de bovinos para corte
43574503000183 17/09/2021 LUIZ ANTONIO DE ANGELO (18) 9198-1896 SP Presidente Venceslau Sitio Pederneiras - Gleba D, Zona Rural , Nº S/n 19400000 DEMAIS R$ 0,00 0151-2/01 :: Criação de bovinos para corte
43567401000130 17/09/2021 ELIZABETE PEREIRA EVANGELISTA (18) 8152-6124 SP Euclides Da Cunha Paulista Sitio Terra Molhada, Zona Rural , Nº S/n 19275000 DEMAIS R$ 0,00 0151-2/01 :: Criação de bovinos para corte
43657177000178 17/09/2021 JANDIRA LOPES DE AMORIM (12) 9729-3517 SP Cunha Rodovia Ignacio Bebiano Dos Reis, Sitio Amorim, Do Amor... 12530000 DEMAIS R$ 0,00 0151-2/01 :: Criação de bovinos para corte
43567134000100 17/09/2021 MAURICIO MARCELINO (15) 9719-8106 SP Itapetininga Estrada Bairro Mato Seco, Mato Seco Est. Sao Fernando,... 18215899 DEMAIS R$ 0,00 0151-2/01 :: Criação de bovinos para corte
43555579000161 17/09/2021 AGROPECUARIA ESTANCIA SANTA IZAURA LTDA (62) 9811-0860 GO Goiania Rua 10, Set Oeste Sala 403 Cond Edificio Jotabrado, Nº ... 74120020 DEMAIS R$ 249.904,00 0151-2/02 :: Criação de bovinos para leite
43567323000174 17/09/2021 VILMA CLARICE DA SILVA (18) 3276-1322 SP Piquerobi Estancia Duas Irmas, Sao Bartolomeu , Nº Km 2 19410000 DEMAIS R$ 0,00 0151-2/02 :: Criação de bovinos para leite
43566095000118 17/09/2021 VITOR CORDEIRO DE AGUIAR (14) 3478-2107 SP Bastos Chacara Jr, Seccao Gloria I , Nº S/n 17690000 DEMAIS R$ 0,00 0151-2/02 :: Criação de bovinos para leite
43566665000170 17/09/2021 MATHEUS HENRIQUE BUENO HIPOLITO (17) 9754-8303 SP Novo Horizonte Sitio Tres Corregos, Pau Dalho Zona Rural, Nº S/n 14968899 DEMAIS R$ 0,00 0151-2/02 :: Criação de bovinos para leite
43573383000108 17/09/2021 Agropecuaria Flor De Mand... AGROPECUARIA FLOR DE MANDACARU LTDA (75) 9992-7296 BA Varzea Da Roca Distrito Po. Capoeira Do Milho, Zona Rural , Nº 16 44635000 ME R$ 100.000,00 0151-2/02 :: Criação de bovinos para leite
43567272000180 17/09/2021 AMALIA GOBETTI MASARIN (18) 3652-4025 SP Aracatuba Estancia Da Esperanca, Traitu , Nº S/n 16129899 DEMAIS R$ 0,00 0151-2/03 :: Criação de bovinos, exceto para corte e leite
43564600000195 17/09/2021 CIBELE FRANCISCA BISMARA DA SILVA (17) 9765-4657 SP Jose Bonifacio Sitio Santa Luzia, Zona Rural , Nº S/n 15200000 DEMAIS R$ 0,00 0151-2/03 :: Criação de bovinos, exceto para corte e leite
43642989000140 17/09/2021 CT HARAS JOSMARION (11) 4467-5853 SP Bofete Rua Sta Catarina I, Jd Sta Catarina , Nº 4 18590000 DEMAIS R$ 0,00 0152-1/02 :: Criação de equinos
43560407000186 17/09/2021 Hospedagem Franca DULCE TERESINHA ROHDEN SANTIAGO (51) 2160-8440 RS Guaiba Area Rural, Area Rural De Guaiba , Nº 6093 92739899 ME R$ 10.100,00 0152-1/02 :: Criação de equinos
43567365000105 17/09/2021 MAURICE FABIAN SCALOPPI (19) 9835-8842 SP Botucatu Rua Raymundo Putty, Jardim Santo Inacio (rubiao Junior)... 18618184 DEMAIS R$ 0,00 0159-8/01 :: Apicultura
43553541000150 17/09/2021 Emporio Das Abelhas DANIEL DE SOUZA DE PAULA 04094267921 (41) 8484-8781 PR Curitiba Rua Maria Mazuroski, Cidade Industrial Lote Esquina, Nº... 81250340 MEI R$ 1.000,00 0159-8/01 :: Apicultura
43553969000100 17/09/2021 Canil Melina S Dogs LAIANE APARECIDA PORFIRO MENDES 46178010818 (15) 8125-2107 SP Porangaba Rua Silverio Manoel De Miranda, Marianos Fundos, Nº 268... 18260000 MEI R$ 5.000,00 0159-8/02 :: Criação de animais de estimação
43558029000104 17/09/2021 CRIADOURO ROCHA VIANA LTDA. (24) 9908-8909 RJ Barra Mansa Rua Sao Jose, Vila Coringa Casa 3, Nº 332 27321280 ME R$ 10.000,00 0159-8/02 :: Criação de animais de estimação
43562322000137 17/09/2021 Gatil Foldcat LARISSA VERA SEVILHA BARROS DUTRA 47698230880 (15) 7403-6076 SP Salto De Pirapora Rua Diniz Florencio Leite, Centro Bloco 12;apt 34;andar... 18160000 MEI R$ 1.000,00 0159-8/02 :: Criação de animais de estimação
43560667000151 17/09/2021 Sol Nascente Granja De Su... PEDRO HENRIQUE REIS BARROS 70461106116 (88) 9918-8902 CE Poranga 1a Rua Vila Nova, Centro , Nº 000 62220000 MEI R$ 1.000,00 0159-8/02 :: Criação de animais de estimação
43557434000108 17/09/2021 Kennel Bulltrins Shepherd... SUETANIA QUEIROZ DE ARAUJO 03233059469 (83) 9973-4056 PB Campina Grande Rua Jose Palhano, Nacoes , Nº 417 58402620 MEI R$ 6.000,00 0159-8/02 :: Criação de animais de estimação
43558889000130 17/09/2021 Lar Dos Guardioes Cane Co... ANTONIO BERNARDO DA SILVA - CANIL (81) 9851-9734 PE Camaragibe Rua Abelardo Basto, Aldeia Dos Camaras , Nº S/n 54783030 ME R$ 50.000,00 0159-8/02 :: Criação de animais de estimação
43556247000100 17/09/2021 Canil Palor MARIANNA VAZ LOBO DA SILVA 05033467999 (41) 9588-0383 PR Curitiba Rua General Raul Da Cunha Bello, Pinheirinho Casa, Nº 4... 81150320 MEI R$ 15.000,00 0159-8/02 :: Criação de animais de estimação
43561769000191 17/09/2021 TUCCI & TUCCI SERVICOS DE PULVERIZACAO LTDA (67) 8143-0265 MS Navirai Rua Das Acacias, Chac. Recreio Recanto Do Bosque , Nº 5... 79950000 ME R$ 10.000,00 0161-0/01 :: Serviço de pulverização e controle de pragas agrícolas
43554362000137 17/09/2021 ELIVELTON PERUZZO 04226479009 (54) 9622-9171 RS Nova Bassano Estrada Linha Senador Ramiro, Comunidade Botafogo , Nº ... 95340000 MEI R$ 2.000,00 0161-0/02 :: Serviço de poda de árvores para lavouras
43561038000146 17/09/2021 Magalhaes - Woods RINARA GABRIELA OLIVEIRA 14995358641 (34) 8893-0317 MG Araxa Rua Avenor De Carvalho, Urciano Lemos , Nº 360 38181152 MEI R$ 20.000,00 0161-0/02 :: Serviço de poda de árvores para lavouras
43557089000102 17/09/2021 Ferreira Morais Ltda ERIKA MORAIS QUIXABA 02831039142 (63) 8512-9403 TO Gurupi Rua 3, Residencial Madrid , Nº 41 77418010 MEI R$ 2.000,00 0161-0/02 :: Serviço de poda de árvores para lavouras
43562276000176 17/09/2021 Prestadora De Servico Sou... LUCIANO DE SOUZA BATISTA 04846009157 (67) 9902-7522 MS Juti Rua Presidente Epitacio, Centro , Nº 9 79955000 MEI R$ 8.000,00 0161-0/02 :: Serviço de poda de árvores para lavouras
43565511000163 17/09/2021 Emperio Florestal CELIO ROBERTO ZANCHINSKI DE MATTOS 07284352922 (42) 8871-0508 PR Sao Mateus Do Sul Rua Francisco Janowski, Loteamento Santa Cruz , Nº 58 83900000 MEI R$ 10.000,00 0161-0/02 :: Serviço de poda de árvores para lavouras
43557193000199 17/09/2021 ALEX BARBOSA GOMES 07147285948 (44) 8416-4120 PR Campo Mourao Area Rural, Area Rural De Campo Mourao , Nº S/n 87314899 MEI R$ 1,00 0161-0/02 :: Serviço de poda de árvores para lavouras
43564361000173 17/09/2021 IRINEU ANTONIO COSTA JUNIOR 56960833825 (13) 9179-6893 SP Eldorado Estrada Bro Quadro Vergueiro, Quadro Vergueiro , Nº 0 11960000 MEI R$ 2.000,00 0161-0/02 :: Serviço de poda de árvores para lavouras
43553780000100 17/09/2021 Mario Augusto Souza Bande... MACIO LUIZ SOUZA BANDEIRA 82530017549 (71) 9633-1047 BA Salvador 1a Travessa Dois De Julho, Vila Ruy Barbosa , Nº 3 40430640 MEI R$ 5.000,00 0161-0/03 :: Serviço de preparação de terreno, cultivo e colheita
43554103000106 17/09/2021 Ari & Elle ARIELLE NUNES RAMOS 07012656557 (75) 8154-9160 BA Iacu Rodovia Ba 046, Ceramica Km 30, Nº 0 46860000 MEI R$ 5.000,00 0161-0/03 :: Serviço de preparação de terreno, cultivo e colheita
43554717000198 17/09/2021 JOAO VIANEY ANDRADE CARNEIRO 79509754404 (87) 9178-9156 PE Afogados Da Ingazeira Sitio Caicara, Zona Rural , Nº 270 56800000 MEI R$ 1.000,00 0161-0/03 :: Serviço de preparação de terreno, cultivo e colheita
43554944000113 17/09/2021 Alfeu Yan Sena ALFEU YAN SENA 06559144127 (65) 9663-7328 MT Campo Verde 4a Rua Belvedere, Belvedere Casa 19, Nº 19 78840000 MEI R$ 100,00 0161-0/03 :: Serviço de preparação de terreno, cultivo e colheita
43555138000160 17/09/2021 Antonio Luiz Gomes Da Sil... ANTONIO LUIZ GOMES DA SILVA 10969846797 (22) 9936-5967 RJ Silva Jardim 10a Rua Rua Do Machereth, Aldeia Velha Casa, Nº 01 28820000 MEI R$ 1.500,00 0161-0/03 :: Serviço de preparação de terreno, cultivo e colheita
43555197000138 17/09/2021 JOSE ANTONIO DO COUTO 39676331015 (51) 9634-1606 RS Venancio Aires Travessa Linha Travessa, Interior , Nº S/n 95800000 MEI R$ 100,00 0161-0/03 :: Serviço de preparação de terreno, cultivo e colheita
43555303000183 17/09/2021 Fw Prestacao De Servicos ... FRANK WERLEY DE ARAUJO SOUZA 03161272218 (27) 9691-4950 ES Nova Venecia Rua Machado, Cristalina - Zona Rural , Nº Sn 29830000 MEI R$ 5.000,00 0161-0/03 :: Serviço de preparação de terreno, cultivo e colheita
43555640000170 17/09/2021 MARIA SOLANGE LOPES RIBEIRO 03540035427 (87) 9604-5872 PE Afogados Da Ingazeira Sitio Caicara, Zona Rural , Nº 270 56800000 MEI R$ 1.000,00 0161-0/03 :: Serviço de preparação de terreno, cultivo e colheita
43555814000103 17/09/2021 FLAVIO ANTUNES SALGADO ROSSI 10914539698 (31) 9547-3450 MG Rio Casca 11a Rua Beijamim Vieira Coelho, Centro , Nº 139 35370000 MEI R$ 5.000,00 0161-0/03 :: Serviço de preparação de terreno, cultivo e colheita
43556272000185 17/09/2021 JOSEANE SOUZA DOS SANTOS 04979373526 (75) 8165-8007 BA Santo Estevao Rua Jose Cerqueira, Alto Do Porrao , Nº 100 44190000 MEI R$ 8.000,00 0161-0/03 :: Serviço de preparação de terreno, cultivo e colheita
43556644000173 17/09/2021 MAGALI CONCEICAO SOUZA 03015439502 (75) 8282-7223 BA Santo Estevao Rua Janjana Borges De Cerqueira, Centro , Nº 48 44190000 MEI R$ 8.000,00 0161-0/03 :: Serviço de preparação de terreno, cultivo e colheita
43556738000142 17/09/2021 SOLISMAR BRAGA DE QUADROS 00084842016 (51) 9557-3435 RS Cachoeira Do Sul Rua Xafi Abraao Nazar (pq Primavera), Visconde De Maua ... 96508632 MEI R$ 5.000,00 0161-0/03 :: Serviço de preparação de terreno, cultivo e colheita
43557710000120 17/09/2021 ROSANE DE JESUS 04853999540 (75) 8350-7680 BA Santo Estevao Rua A, Centro , Nº 197 44190000 MEI R$ 8.000,00 0161-0/03 :: Serviço de preparação de terreno, cultivo e colheita
43557913000116 17/09/2021 Diego Jacobs DIEGO JACOBS 03263284169 (66) 9238-4030 MT Sorriso Rua Mario Spinelli, Jardim Aurora , Nº 1141 78892132 MEI R$ 10.000,00 0161-0/03 :: Serviço de preparação de terreno, cultivo e colheita
43558133000190 17/09/2021 Elder Silverio De Freitas JANIO PAIVA ALENCAR 00264705190 (66) 3522-1511 MT Sao Felix Do Araguaia Rua 6, Vila Santo Antonio , Nº Sn 78670000 MEI R$ 10.000,00 0161-0/03 :: Serviço de preparação de terreno, cultivo e colheita
43558541000142 17/09/2021 Elder Silverio De Freitas LUCAS DAVID ROBERTI 08961234994 (66) 3522-1511 MT Sao Felix Do Araguaia Rua Do Comercio, Centro , Nº 246 78670000 MEI R$ 10.000,00 0161-0/03 :: Serviço de preparação de terreno, cultivo e colheita
43560177000155 17/09/2021 Rony Negocios MATHEUS PALMEIRA DE LIMA 48285736822 (11) 9005-6643 SP Sao Paulo Rua Vanadia, Jardim Nova Vitoria I , Nº 66 08373150 MEI R$ 4.000,00 0161-0/03 :: Serviço de preparação de terreno, cultivo e colheita
43560599000120 17/09/2021 Billy P F Oliveira Servic... BILLY PAOLO FERREIRA OLIVEIRA 03661594109 (66) 9935-7885 MT Agua Boa Rua F 08, Primavera , Nº 365 78635000 MEI R$ 12.000,00 0161-0/03 :: Serviço de preparação de terreno, cultivo e colheita
43561546000124 17/09/2021 Pilabel Reformas E Vendas... MARCOS DE JESUS SANTOS 03433583528 (71) 9329-0894 BA Salvador Rua Professor Jaime De Sa Menezes, Cajazeiras Vii Casa,... 41337100 MEI R$ 25.000,00 0161-0/03 :: Serviço de preparação de terreno, cultivo e colheita
43561704000146 17/09/2021 ALAN PEDRO BEDENDE 02721890069 (49) 9977-6392 RS Itatiba Do Sul Estrada Povoado Campo Do Acoita, Interior , Nº 1313 99760000 MEI R$ 80.000,00 0161-0/03 :: Serviço de preparação de terreno, cultivo e colheita
43562031000149 17/09/2021 VAPS PRESTADORA DE SERVICOS LTDA (51) 9969-4885 RS Portao Rua Boa Vista, Estacao Portao Sala 01, Nº 1541 93180000 ME R$ 20.000,00 0161-0/03 :: Serviço de preparação de terreno, cultivo e colheita
43563019000159 17/09/2021 FABIO LUIZ GUDER HERTEL 07628328946 (45) 9843-3515 PR Entre Rios Do Oeste Rua Dorothea Gottschalk Fischer, Parque Das Araucarias ... 85988000 MEI R$ 1,00 0161-0/03 :: Serviço de preparação de terreno, cultivo e colheita
43563260000188 17/09/2021 KENITI RONALDO KOBAYASHI 07657028947 (43) 9140-8611 PR Sertaneja Rua Das Rosas Qd 1 Lt 14, Jardim Bom Jesus Casa, Nº Sn 86340000 MEI R$ 500,00 0161-0/03 :: Serviço de preparação de terreno, cultivo e colheita
43563728000134 17/09/2021 Adelar Thome ADELAR MONTEIRO THOME 50743546091 (55) 8473-3344 RS Sao Luiz Gonzaga 10a Rua Treze De Maio, Centro Casa, Nº 1708 97800000 MEI R$ 100,00 0161-0/03 :: Serviço de preparação de terreno, cultivo e colheita
43565595000135 17/09/2021 Gs Tripas GILMAR NUNES 66941075287 (69) 8413-7617 RO Ji-parana Rua Joao Dos Santos Filho, Bela Vista , Nº 1574 76907684 MEI R$ 10.000,00 0161-0/03 :: Serviço de preparação de terreno, cultivo e colheita
43565612000134 17/09/2021 Natalia Rocha Da Silva NATALIA ROCHA DA SILVA 45727797837 (11) 6926-0314 SP Guarulhos Rua Aldeias Altas (vila Dinamarca), Agua Chata , Nº 19 07251140 MEI R$ 3.000,00 0161-0/03 :: Serviço de preparação de terreno, cultivo e colheita
43566288000179 17/09/2021 HERMINO RODRIGUES DOS SANTOS FILHO 09080591750 (21) 7345-5903 RJ Seropedica Avenida A, Jardim Maracana Quadra 59, Nº 30 23891745 MEI R$ 1.000,00 0161-0/03 :: Serviço de preparação de terreno, cultivo e colheita
43567070000139 17/09/2021 A.m Extracao De Resinas ALESSANDRO MACHADO MESQUITA 04106324067 (51) 9696-6112 RS Tavares 11a Rua Jose Evaristo Dos Santos, Centro , Nº 240 96290000 MEI R$ 2.000,00 0161-0/03 :: Serviço de preparação de terreno, cultivo e colheita
43567190000136 17/09/2021 Hfa Construtora HELITON CRISTIANO ALBRANTI 17045763859 (14) 8182-7273 SP Bariri Avenida Joao Lemos, Centro , Nº 1176 17250039 MEI R$ 8.000,00 0161-0/03 :: Serviço de preparação de terreno, cultivo e colheita
43558629000164 17/09/2021 Agricola Santa Maria ENZO DE OLIVEIRA GONZALES (16) 9614-5222 SP Guaranta Rodovia Marechal Rondon Km 413 Sitio Nossa Senhora Apa... 16574899 ME R$ 20.000,00 0161-0/03 :: Serviço de preparação de terreno, cultivo e colheita
43553659000188 17/09/2021 ALIPIO DOS SANTOS GOMES 17576494760 (27) 3752-2162 ES Boa Esperanca Rua Amazonas, Vila Tavares , Nº 155 29845000 MEI R$ 1.000,00 0161-0/03 :: Serviço de preparação de terreno, cultivo e colheita
43553782000107 17/09/2021 Escritorio ELIVELTON DE MORAIS GOMES 41169924883 (13) 3854-2029 SP Cajati 5a Rua Rua Aracaju, Centro, Centro , Nº 59 11950000 MEI R$ 500,00 0161-0/03 :: Serviço de preparação de terreno, cultivo e colheita
43556447000154 17/09/2021 Gabriel Galvao GABRIEL CARVALHO GALVAO 03288243130 (66) 9638-7447 MT Marcelandia Rua Ema De Carli Fogo, Centro , Nº 944 78535000 MEI R$ 100,00 0161-0/03 :: Serviço de preparação de terreno, cultivo e colheita
43558827000128 17/09/2021 VINICIUS PEREIRA LIMA 15917936706 (22) 9987-5231 RJ Miracema Sitio Providencia Barreiro, Zona Rural , Nº Sn 28460000 MEI R$ 500,00 0161-0/03 :: Serviço de preparação de terreno, cultivo e colheita
43560621000132 17/09/2021 Jm JOELSON PADILHA 48240907920 (49) 3300-2934 SC Cacador Rua Gilberto Piolla Da Silva, Bom Sucesso , Nº 210 89501426 MEI R$ 1.500,00 0161-0/03 :: Serviço de preparação de terreno, cultivo e colheita
43561161000167 17/09/2021 Jh Tratos Culturais HIGOR HENRIQUE RODRIGUES SILVEIRA 42059170826 (18) 9978-8388 SP Candido Mota Area Rural, Area Rural De Candido Mota , Nº S/n 19886899 MEI R$ 5.000,00 0161-0/03 :: Serviço de preparação de terreno, cultivo e colheita
43562398000162 17/09/2021 JULIANA FERREIRA MURBACH 08296966956 (41) 8783-4905 PR Lapa Colonia Povinho, Zona Rural Casa, Nº 0 83750000 MEI R$ 100,00 0161-0/03 :: Serviço de preparação de terreno, cultivo e colheita
43564719000168 17/09/2021 A & G Servicos ALDERNEY LOPES DA COSTA 01691455229 (92) 9449-1163 AM Itacoatiara Area Rural, Area Rural De Itacoatiara Casa, Nº 7 69109899 MEI R$ 1.000,00 0161-0/03 :: Serviço de preparação de terreno, cultivo e colheita
43565184000140 17/09/2021 Pnt Ponta GILSON BARCELO 07176500738 (21) 9962-9604 RJ Paraty Estrada Estrada Do Corisco, Corisco Casa, Nº 02 23970000 MEI R$ 50.000,00 0161-0/03 :: Serviço de preparação de terreno, cultivo e colheita
43560588000140 17/09/2021 Rk Prest. De Servicos De ... ROGERIO CESAR SCOLARI 00888762097 (54) 8108-4207 RS Sertao 10a Avenida Jorge Alfredo Streit, Centro , Nº 880 99170000 MEI R$ 4.000,00 0161-0/03 :: Serviço de preparação de terreno, cultivo e colheita
43558023000129 17/09/2021 Jj Construcao Civil JEFFERSON DA SILVA LOPES 12379813795 (21) 9653-4417 RJ Rio De Janeiro Rua Souza Ramos (com Final Feliz), Anchieta , Nº 12 21645563 MEI R$ 10.000,00 0161-0/03 :: Serviço de preparação de terreno, cultivo e colheita
43556282000110 17/09/2021 Tati Servicos TATIANE RAMOS DA SILVA 06477993163 (65) 9693-6110 MT Porto Esperidiao Rua Parana, Vila Cardoso , Nº 0 78240000 MEI R$ 20.000,00 0161-0/03 :: Serviço de preparação de terreno, cultivo e colheita
43566641000110 17/09/2021 Deyvid Sena Da Silva DEYVID SENA DA SILVA 43237027871 (19) 8827-7672 SP Indaiatuba Rua Professor Doutor Masaharu Tanigushi, Jardim Morada ... 13348250 MEI R$ 2.000,00 0161-0/03 :: Serviço de preparação de terreno, cultivo e colheita
43567110000142 17/09/2021 MARCOS FRANCISCO DE SOUZA 00459137735 (21) 8969-5219 RJ Teresopolis Estrada Doutor Rogerio De Moura Estevao, Venda Nova Cas... 25977400 MEI R$ 1.000,00 0161-0/03 :: Serviço de preparação de terreno, cultivo e colheita
43557551000163 17/09/2021 RITA LOPES ROMANO BAETA 94162441634 (31) 3746-1391 MG Piranga 10a Rua Do Engenho, Vila Do Carmo , Nº 228 36480000 MEI R$ 2.000,00 0161-0/03 :: Serviço de preparação de terreno, cultivo e colheita
43555709000166 17/09/2021 Edimar Servicos EDIMAR DOS SANTOS 03308454114 (65) 9815-6326 MT Porto Esperidiao Rua Parana, Vila Cardoso , Nº 0 78240000 MEI R$ 20.000,00 0161-0/03 :: Serviço de preparação de terreno, cultivo e colheita
43566420000142 17/09/2021 E.s.b Cargas E Descargas EDVANILDO DOS SANTOS BUENO 89246810104 (62) 9853-0204 GO Aparecida De Goiania Rua Vereador Elberto Batista, Setor Serra Dourada - 3a ... 74973610 MEI R$ 6.000,00 0161-0/03 :: Serviço de preparação de terreno, cultivo e colheita
43555447000130 17/09/2021 IRENE DIVINA LELIS NOGUEIRA 56411081620 (31) 9781-2427 MG Cajuri Fazenda Boa Vista, Zona Rural , Nº Sn 36560000 MEI R$ 10.000,00 0161-0/03 :: Serviço de preparação de terreno, cultivo e colheita
43560813000149 17/09/2021 DIOVANI PAGNOCELLI 02411460970 (49) 8801-1254 SC Coronel Freitas Rua Amazonas, Tres Palmeiras , Nº 1001 89840000 MEI R$ 10.000,00 0161-0/03 :: Serviço de preparação de terreno, cultivo e colheita
43555534000197 17/09/2021 RICARDO CESAR LUCIANO DE OLIVEIRA 34072434809 (14) 9773-0371 SP Sao Manuel Rua Francisco Di Santis, Centro , Nº 68 18650000 MEI R$ 5.000,00 0161-0/03 :: Serviço de preparação de terreno, cultivo e colheita
43564713000190 17/09/2021 Tres Irmaos Prestadora De... WESLEY GUILHERME FERREIRA 09020906666 (35) 9985-6739 MG Botelhos 10a Avenida Da Saudade, Centro Casa, Nº 148 A 37720000 MEI R$ 5.000,00 0161-0/03 :: Serviço de preparação de terreno, cultivo e colheita
43566562000100 17/09/2021 CLAUDEMIR BARBOSA DOS SANTOS 06321788929 (41) 9758-0765 PR Lapa 10a Rua Sao Miguel, Centro , Nº 66 83750000 MEI R$ 1,00 0161-0/03 :: Serviço de preparação de terreno, cultivo e colheita
43561681000170 17/09/2021 JOSE RAMOS DOS SANTOS NETTO 02785469518 (73) 8835-1115 BA Ubata Rua Arlete Magalhaes, Sao Raimundo , Nº 109 45550000 MEI R$ 15.000,00 0161-0/03 :: Serviço de preparação de terreno, cultivo e colheita
43565788000196 17/09/2021 Prestacoes De Servico - L... LAMARA GABRIELE DE SOUZA LEMOS 06971591160 (61) 8291-9158 DF Brasilia 10a Rua Shs Quadra 2, Asa Sul Bloco Hotel Bonaparte Res... 70312000 MEI R$ 1,00 0161-0/03 :: Serviço de preparação de terreno, cultivo e colheita
43565994000104 17/09/2021 Sam Servicos SAMIA GHADIE DA SILVEIRA 01031380132 (67) 9964-5228 MS Campo Grande Rua Antonio Correa, Jardim Paulista , Nº 1559 79050210 MEI R$ 5.000,00 0161-0/03 :: Serviço de preparação de terreno, cultivo e colheita
43553903000102 17/09/2021 Agroxavier RENAN X DE ABREU LTDA (31) 8233-1293 MG Santa Margarida Praca Cristovao Nunes De Oliveira, Ribeirao De Sao Domi... 36913000 ME R$ 30.000,00 0161-0/99 :: Atividades de apoio à agricultura não especificadas anteriormente
43553983000104 17/09/2021 Tam Servicos De Agropecua... TAM SERVICOS DE AGROPECUARIA LTDA (37) 3523-1111 MG Martinho Campos Fazenda Santa Cruz, Zona Rural , Nº Sn 35606000 DEMAIS R$ 100.000,00 0162-8/99 :: Atividades de apoio à pecuária não especificadas anteriormente
43657252000109 17/09/2021 LEVICO BRAZ DA SILVA (15) 3535-1162 SP Bom Sucesso De Itarare Sitio Fronteira, Bom Sucesso De Itarare , Nº Sn 18475000 DEMAIS R$ 0,00 0210-1/03 :: Cultivo de pinus
43560928000133 17/09/2021 3A SERVICOS FLORESTAIS LTDA (47) 9903-1098 SC Rio Do Sul Rua Conselheiro Willy Hering, Bela Alianca , Nº 771 89161460 ME R$ 20.000,00 0210-1/07 :: Extração de madeira em florestas plantadas
43567227000126 17/09/2021 JOSE RUBENS GOMES CIRILO (15) 3552-0000 SP Ribeira Estrada Bairro Do Chapeu, Chapeu , Nº Sn 18380000 DEMAIS R$ 0,00 0210-1/99 :: Produção de produtos não madeireiros não especificados anteriormente em florestas plantadas
43567229000115 17/09/2021 MARCIO GOMES DE LIMA (15) 3552-0000 SP Ribeira Estrada Bairro Do Chapeu, Chapeu , Nº Sn 18380000 DEMAIS R$ 0,00 0210-1/99 :: Produção de produtos não madeireiros não especificados anteriormente em florestas plantadas
43559482000127 17/09/2021 Reserva Ycatu RESERVA YCATU SPE LTDA (73) 8159-1218 BA Urucuca Fazenda Serra Grande, Zona Rural - Serra Grande Km 37 R... 45680000 ME R$ 1.600.000,00 0220-9/06 :: Conservação de florestas nativas
43559685000113 17/09/2021 EBC SERVICOS FLORESTAIS E TRANSPORTES LTDA (38) 9849-2851 MG Joao Pinheiro Rua Vicente Paula Maciel, Panorama Sala 01, Nº 391 38770000 DEMAIS R$ 50.000,00 0230-6/00 :: Atividades de apoio à produção florestal
43565499000197 17/09/2021 Brazil Carcinicultura BRAZIL CARCINICULTURA LTDA (88) 3418-1074 CE Jaguaruana Sitio Jenipapeiro, Zona Rural Jenipapeiro, Nº Sn 62823000 ME R$ 50.000,00 0321-3/02 :: Criação de camarões em água salgada e salobra
43554845000131 17/09/2021 GUSMAO GOLD MINERACAO LTDA (31) 9512-8181 MG Belo Horizonte Rua Dos Carijos, Centro Sala 201, Nº 126 30120060 ME R$ 10.000,00 0724-3/01 :: Extração de minério de metais preciosos
43565623000114 17/09/2021 JOSE DUARTE IRMAO (74) 8847-4420 BA Senhor Do Bonfim Rua 3 Quadra A, Casas Populares , Nº 61 48970000 ME R$ 50.000,00 0810-0/01 :: Extração de ardósia e beneficiamento associado
43562621000171 17/09/2021 Au - Areia Urucuia AU - AREIA URUCUIA LTDA (38) 9840-1620 MG Urucuia Fazenda Mutuca, Rod. Mg-202 4 Km A Direita + Rm 8 Km Ac... 38649000 ME R$ 200.000,00 0810-0/06 :: Extração de areia, cascalho ou pedregulho e beneficiamento associado
43558894000142 17/09/2021 Mineradora Fazenda Varjad... J EDSON DA SILVA EXTRACAO E MINERACAO (81) 9504-3157 PE Passira Fazenda Varjadas, Zona Rural , Nº Sn 55650000 DEMAIS R$ 55.000,00 0810-0/07 :: Extração de argila e beneficiamento associado
43558979000120 17/09/2021 Brios BRIOS SERVICOS E CONSULTORIA LTDA (21) 3738-2606 RJ Rio De Janeiro Rua Visconde De Piraja, Ipanema Sala 718, Nº 00414 22410905 ME R$ 10.000,00 0910-6/00 :: Atividades de apoio à extração de petróleo e gás natural
43565693000172 17/09/2021 G 10 Gold G 10 GOLD MINERADORA LTDA (38) 8837-1055 PA Cachoeira Do Piria Avenida Getulio Vargas, Centro , Nº 45 68617000 DEMAIS R$ 900.000,00 0990-4/02 :: Atividades de apoio à extração de minerais metálicos não ferrosos
43562080000181 17/09/2021 Frigopar FRIGORIFICO ALMEIDA & BOCKER LTDA (42) 8835-2825 PR Cruz Machado Colonia Linha Charqueada, Zona Rural , Nº S/n 84620000 ME R$ 150.000,00 1011-2/01 :: Frigorífico - abate de bovinos
43561434000173 17/09/2021 Granja Mg MATHEUS LUCIANO GOULART CARDOSO 70049129147 (64) 9684-6883 GO Caiaponia Rua Joao Jose Cardoso, Norte Quadra 7;lote 1, Nº Sn 75850000 MEI R$ 15.000,00 1013-9/01 :: Fabricação de produtos de carne
43553644000110 17/09/2021 Alimentos Menegon Ltda ALIMENTOS MENEGON LTDA (55) 9600-4079 RS Pinhal Estrada Linha Pitol, Interior , Nº Sn 98345000 DEMAIS R$ 50.000,00 1013-9/01 :: Fabricação de produtos de carne
43562286000101 17/09/2021 Embutidos Imperio GUILHERME SALANTE, INDUSTRIA E COMERCIO DE EMBUTIDOS (55) 8156-3478 RS Braga Campo Linha Bombardelli, Interior , Nº Sn 98560000 ME R$ 50.000,00 1013-9/01 :: Fabricação de produtos de carne
43557260000175 17/09/2021 Fluxo Burguer WILLIANS TAVARES ALVES 08162535365 (99) 9158-6004 MA Tuntum 10a Rua Rua Frei Angelo, Parque Sao Raimundo Casa Em Fr... 65763000 MEI R$ 456,29 1013-9/01 :: Fabricação de produtos de carne
43558106000118 17/09/2021 Meu Hobby Artesanal HOBBY COMERCIO E FABRICACAO DE PRODUTOS DE CARNE EIRELI (91) 8923-8909 PA Belem Alameda A, Marambaia Conj Mendara Fundos, Nº 326 66615600 DEMAIS R$ 120.000,00 1013-9/01 :: Fabricação de produtos de carne
43555813000150 17/09/2021 Espetinhos Santiago's SIRLENE LISBOA PEREIRA 35338788802 (11) 4824-4079 SP Ribeirao Pires Avenida Prefeito Valdirio Prisco, Colonia Terreo Rua, N... 09405280 MEI R$ 1.000,00 1013-9/01 :: Fabricação de produtos de carne
43557209000163 17/09/2021 VF SUBPRODUTOS BOVINOS LTDA (34) 3246-8079 MG Araguari Rua Severino Alves Cardoso, Goias , Nº 75 38442188 DEMAIS R$ 100.000,00 1013-9/02 :: Preparação de subprodutos do abate
43553934000163 17/09/2021 Mc Salgados MARIA CARLA CICERO DA SILVA 33879386838 (16) 3253-6433 SP Taquaritinga Avenida Simao Calil, Jardim Do Bosque , Nº 435 15906856 MEI R$ 5.000,00 1031-7/00 :: Fabricação de conservas de frutas
43557887000126 17/09/2021 Castanhas Do Marajo ALAN JOSE FELIPE DA COSTA 71122179464 (35) 9112-9623 RN Joao Camara Fazenda Fazenda Marajo, Area Rural , Nº 678 59550000 MEI R$ 1.100,00 1031-7/00 :: Fabricação de conservas de frutas
43557634000152 17/09/2021 Top Polpa JACQUELINE FELIX OLIVEIRA LACERDA 03214328433 (81) 9599-5319 PE Olinda Rua Monte Alegre, Ouro Preto , Nº 55 53370293 MEI R$ 2.000,00 1031-7/00 :: Fabricação de conservas de frutas
43554160000195 17/09/2021 Acai Victoria DAVID COSTA FERREIRA 04069959157 (62) 8117-9419 GO Goiania Rua Da Republica, Capuava Quadra 47;lote 20;casa 02, Nº... 74450390 MEI R$ 10.000,00 1031-7/00 :: Fabricação de conservas de frutas
43560204000190 17/09/2021 Mundo Roxo LOURACI SUDARO SILVA 81889127949 (61) 9826-8186 GO Aguas Lindas De Goias Quadra Quadra 9, Mansoes Aguas Lindas , Nº 25 72915204 MEI R$ 5.000,00 1031-7/00 :: Fabricação de conservas de frutas
43564081000165 17/09/2021 Vandeson Castanhas VANDERSON OLIVEIRA JUSTINO 07959307393 (85) 8129-3514 CE Barreira 12a Rua Conjunto Novo, Centro Casa, Nº 36 62795000 MEI R$ 5.000,00 1031-7/00 :: Fabricação de conservas de frutas
43564297000120 17/09/2021 Mini Mercearia Piparatibu... ANA CAROLINE FRANCISCO DE ALBUQUERQUE 18939891783 (21) 8985-9977 RJ Rio De Janeiro Rua Ieda Santos Delgado, Paciencia Conj Conj. Gouveia, ... 23587320 MEI R$ 3.000,00 1031-7/00 :: Fabricação de conservas de frutas
43562343000152 17/09/2021 Oliveiras GESSICA COSTA DE OLIVEIRA 08186869794 (24) 9862-4286 RJ Itatiaia Avenida Penedo, Penedo , Nº 473 27580000 MEI R$ 5.000,00 1032-5/99 :: Fabricação de conservas de legumes e outros vegetais, exceto palmito
43559876000185 17/09/2021 Baitata CAROLINA CALDEIRA GARCIA 18495162784 (24) 8826-6865 RJ Petropolis Avenida Country Club, Nogueira , Nº 6320a 25730410 MEI R$ 10.000,00 1032-5/99 :: Fabricação de conservas de legumes e outros vegetais, exceto palmito
43558255000187 17/09/2021 Acai Da Elaine ELAINE DAMASCENO PANTOJA 94956014287 (91) 9384-1236 PA Belem Avenida Roberto Camelier, Jurunas Box Anexo, Nº 1099 66033640 MEI R$ 8.000,00 1033-3/01 :: Fabricação de sucos concentrados de frutas, hortaliças e legumes
43560029000130 17/09/2021 Arca Do Acai ARCA DO ACAI LTDA (69) 3043-4064 RO Itapua Do Oeste Rodovia Rodovia Br 364 Sentido Porto Velho/itapua Do Oe... 76861970 ME R$ 300.000,00 1033-3/01 :: Fabricação de sucos concentrados de frutas, hortaliças e legumes
43558697000123 17/09/2021 Horta Do Catarino CATARINO CARLO RAMOS 77767489191 (67) 9652-0455 MS Miranda 10a Rua Rua Delmiro De Albuquerque, Santa Cruz Fundos A... 79380000 MEI R$ 5.000,00 1033-3/02 :: Fabricação de sucos de frutas, hortaliças e legumes, exceto concentrados
43564834000132 17/09/2021 Du Branco PERTONI HENRIQUE NUNES DA SILVA 44117580833 (15) 9824-4122 SP Sorocaba Rua Messias Leite Jardim Horizonte, Cajuru Do Sul Quadr... 18105151 MEI R$ 4.000,00 1052-0/00 :: Fabricação de laticínios
43563812000158 17/09/2021 VANTUIR MARTINS CORREA 07808231681 (35) 8885-8533 MG Sao Lourenco Rua Joao Pessoa, Estacao Casa 02, Nº 04 37470000 MEI R$ 3.000,00 1052-0/00 :: Fabricação de laticínios
43564555000179 17/09/2021 Fazenda Sao Jose - Produt... MARCELLO EDUARDO SALDANHA PEIXOTO DA SILVA 00309760224 (95) 8129-6569 RR Boa Vista Rua Aureo Cruz, Buritis , Nº 1671 69309201 MEI R$ 5.000,00 1052-0/00 :: Fabricação de laticínios
43560316000140 17/09/2021 Quitutes Da Bina BERNADETE MARIA RACHOR 65403975004 (55) 9965-6864 RS Salto Do Jacui 10a Rua Dorval Prates, Menino Deus , Nº 52 99440000 MEI R$ 3.000,00 1052-0/00 :: Fabricação de laticínios
43556531000178 17/09/2021 Arlen Laticinios ARLEN JOAO FERREIRA 29826486876 (12) 9760-6264 SP Redencao Da Serra 10a Rua Bairro Das Paineiras, Paineiras Casa, Nº 24 12170000 MEI R$ 100,00 1052-0/00 :: Fabricação de laticínios
43557905000170 17/09/2021 Sonho Gelado SONHO GELADO GELATERIA IND. E COM. LTDA (37) 9967-4342 MG Oliveira Avenida Maracana, Centro , Nº 165 35540000 ME R$ 100.000,00 1053-8/00 :: Fabricação de sorvetes e outros gelados comestíveis
43559318000110 17/09/2021 Four Ice Sorvetes FOUR ICE IND FAB SORV LTDA (17) 3242-2103 SP Mirassol Rua Nercio Benedito Leal, Vila Maria Regis I , Nº 2519 15132044 ME R$ 67.500,00 1053-8/00 :: Fabricação de sorvetes e outros gelados comestíveis

São Milhões de Leads em Todo Brasil para Você Fechar Negócios

***

Total de Contatos em 00/00/0000

***

Com Emails Válidos em 00/00/0000

***

Com Telefones Válidos – 00/00/0000

.